Time;durP1;ratioP1;P1;durP2;ratioP2;P2;SDS_P1;SDS_P2;PMS_P1;PMS_P2;Temp;Humidity;BMP_temperature;BMP_pressure;BME280_temperature;BME280_humidity;BME280_pressure;Samples;Min_cycle;Max_cycle;Signal;HPM_P1;HPM_P2
2022/06/14 00:00:55;;;;;;;1.70;1.02;;;;;;;;;;4956687;29;20031;-84
2022/06/14 00:03:33;;;;;;;2.10;1.20;;;;;;;;;;4956895;29;20027;-84
2022/06/14 00:06:01;;;;;;;1.95;1.15;;;;;;;;;;4956415;29;20488;-83
2022/06/14 00:08:28;;;;;;;1.95;1.10;;;;;;;;;;4956483;29;20042;-84
2022/06/14 00:10:56;;;;;;;3.00;1.48;;;;;;;;;;4940576;29;20122;-84
2022/06/14 00:13:22;;;;;;;2.28;1.25;;;;;;;;;;4956583;29;20039;-85
2022/06/14 00:15:48;;;;;;;3.92;1.42;;;;;;;;;;4940354;29;20174;-84
2022/06/14 00:18:14;;;;;;;1.42;1.10;;;;;;;;;;4956239;29;20065;-83
2022/06/14 00:20:40;;;;;;;3.17;1.42;;;;;;;;;;4956036;29;20058;-84
2022/06/14 00:23:05;;;;;;;3.50;0.98;;;;;;;;;;4940253;29;20412;-84
2022/06/14 00:25:37;;;;;;;1.67;1.25;;;;;;;;;;4956257;29;20176;-84
2022/06/14 00:28:04;;;;;;;3.88;1.30;;;;;;;;;;4955805;29;20078;-83
2022/06/14 00:30:30;;;;;;;2.72;1.30;;;;;;;;;;4957657;28;20031;-83
2022/06/14 00:32:55;;;;;;;2.25;1.30;;;;;;;;;;4939845;29;20476;-84
2022/06/14 00:35:20;;;;;;;1.90;1.27;;;;;;;;;;4957337;28;20034;-83
2022/06/14 00:37:46;;;;;;;2.28;1.40;;;;;;;;;;4940194;29;20428;-84
2022/06/14 00:40:15;;;;;;;1.70;1.10;;;;;;;;;;4956025;29;20313;-84
2022/06/14 00:42:40;;;;;;;2.78;1.20;;;;;;;;;;4955959;29;20027;-84
2022/06/14 00:45:12;;;;;;;4.45;1.25;;;;;;;;;;4955943;29;20156;-85
2022/06/14 00:47:43;;;;;;;5.15;1.42;;;;;;;;;;4957045;28;20039;-84
2022/06/14 00:50:18;;;;;;;1.65;1.08;;;;;;;;;;4955483;29;20081;-84
2022/06/14 00:52:47;;;;;;;3.35;1.30;;;;;;;;;;4955906;29;20023;-85
2022/06/14 00:55:18;;;;;;;1.98;1.30;;;;;;;;;;4956775;29;20031;-85
2022/06/14 00:57:57;;;;;;;2.78;1.50;;;;;;;;;;4955694;29;20031;-85
2022/06/14 01:00:27;;;;;;;2.65;1.35;;;;;;;;;;4955616;29;20491;-84
2022/06/14 01:02:54;;;;;;;2.83;1.48;;;;;;;;;;4955413;29;20047;-84
2022/06/14 01:05:26;;;;;;;2.55;1.30;;;;;;;;;;4955664;29;20073;-83
2022/06/14 01:07:58;;;;;;;3.17;1.23;;;;;;;;;;4955187;29;20019;-84
2022/06/14 01:10:27;;;;;;;3.85;1.73;;;;;;;;;;4938312;29;20360;-84
2022/06/14 01:12:55;;;;;;;3.53;1.33;;;;;;;;;;4955309;29;20170;-83
2022/06/14 01:15:23;;;;;;;2.35;1.40;;;;;;;;;;4954848;29;20031;-84
2022/06/14 01:17:53;;;;;;;6.57;1.20;;;;;;;;;;4956591;28;20050;-84
2022/06/14 01:20:20;;;;;;;2.88;1.35;;;;;;;;;;4955076;29;20058;-83
2022/06/14 01:22:47;;;;;;;2.38;1.40;;;;;;;;;;4939051;29;20395;-85
2022/06/14 01:25:13;;;;;;;2.63;1.30;;;;;;;;;;4955114;29;20019;-84
2022/06/14 01:27:40;;;;;;;3.13;1.30;;;;;;;;;;4938915;29;20061;-84
2022/06/14 01:30:09;;;;;;;2.58;1.10;;;;;;;;;;4955070;29;20111;-83
2022/06/14 01:32:39;;;;;;;2.13;1.15;;;;;;;;;;4954706;29;20031;-85
2022/06/14 01:35:07;;;;;;;3.58;1.27;;;;;;;;;;4938713;29;20087;-84
2022/06/14 01:37:33;;;;;;;3.13;1.50;;;;;;;;;;4954904;29;20033;-84
2022/06/14 01:39:59;;;;;;;3.55;1.30;;;;;;;;;;4955077;29;20035;-84
2022/06/14 01:42:41;;;;;;;2.42;1.38;;;;;;;;;;4955922;28;20492;-84
2022/06/14 01:45:16;;;;;;;2.28;1.38;;;;;;;;;;4954739;29;20028;-83
2022/06/14 01:47:50;;;;;;;4.68;1.45;;;;;;;;;;4955602;29;20109;-83
2022/06/14 01:53:50;;;;;;;2.83;1.35;;;;;;;;;;4955858;29;19932;-84
2022/06/14 01:56:39;;;;;;;2.72;1.15;;;;;;;;;;4951009;29;20123;-83
2022/06/14 01:59:17;;;;;;;2.88;1.20;;;;;;;;;;4954325;29;20454;-83
2022/06/14 02:01:56;;;;;;;3.95;1.45;;;;;;;;;;4955556;28;20035;-83
2022/06/14 02:04:39;;;;;;;4.15;1.30;;;;;;;;;;4954284;29;20135;-83
2022/06/14 02:07:11;;;;;;;1.58;1.33;;;;;;;;;;4955868;28;20388;-83
2022/06/14 02:09:51;;;;;;;6.07;1.40;;;;;;;;;;4955505;28;20507;-83
2022/06/14 02:12:20;;;;;;;2.83;1.15;;;;;;;;;;4938092;29;20114;-83
2022/06/14 02:14:56;;;;;;;3.55;1.27;;;;;;;;;;4955176;29;20032;-83
2022/06/14 02:17:36;;;;;;;2.15;1.17;;;;;;;;;;4937816;29;20373;-83
2022/06/14 02:20:05;;;;;;;1.83;1.13;;;;;;;;;;4953566;28;20047;-85
2022/06/14 02:22:38;;;;;;;2.80;1.38;;;;;;;;;;4953936;29;20027;-83
2022/06/14 02:25:11;;;;;;;3.87;1.40;;;;;;;;;;4954373;29;20373;-84
2022/06/14 02:27:57;;;;;;;2.83;1.30;;;;;;;;;;4954077;29;20551;-84
2022/06/14 02:30:25;;;;;;;3.47;1.30;;;;;;;;;;4954223;29;20587;-84
2022/06/14 02:33:14;;;;;;;3.10;1.65;;;;;;;;;;4953816;29;20147;-83
2022/06/14 02:35:57;;;;;;;3.50;1.40;;;;;;;;;;4953876;29;20054;-83
2022/06/14 02:38:41;;;;;;;2.50;1.30;;;;;;;;;;4954819;28;20102;-83
2022/06/14 02:41:09;;;;;;;;;;;;;;;;;;4953988;29;20027;-83
2022/06/14 02:43:39;;;;;;;1.75;1.20;;;;;;;;;;4937696;29;20013;-84
2022/06/14 02:46:10;;;;;;;1.10;1.00;;;;;;;;;;4953786;29;20034;-83
2022/06/14 02:48:48;;;;;;;2.28;1.50;;;;;;;;;;4953715;29;20031;-83
2022/06/14 02:51:17;;;;;;;2.05;1.10;;;;;;;;;;4955149;29;20051;-83
2022/06/14 02:53:44;;;;;;;3.05;1.65;;;;;;;;;;4937780;29;20035;-83
2022/06/14 02:56:40;;;;;;;2.75;1.10;;;;;;;;;;4937420;29;20027;-83
2022/06/14 02:59:13;;;;;;;2.25;1.20;;;;;;;;;;4952121;29;20090;-83
2022/06/14 03:01:40;;;;;;;4.93;1.30;;;;;;;;;;4953650;29;20027;-83
2022/06/14 03:04:11;;;;;;;3.20;1.42;;;;;;;;;;4954750;28;20038;-83
2022/06/14 03:06:43;;;;;;;3.65;1.50;;;;;;;;;;4937583;29;20043;-83
2022/06/14 03:09:14;;;;;;;4.18;1.30;;;;;;;;;;4937549;29;20093;-83
2022/06/14 03:11:52;;;;;;;4.35;1.55;;;;;;;;;;4953140;29;20535;-82
2022/06/14 03:14:44;;;;;;;2.65;1.20;;;;;;;;;;4954556;28;20551;-83
2022/06/14 03:17:39;;;;;;;3.03;1.25;;;;;;;;;;4953831;29;20050;-82
2022/06/14 03:20:10;;;;;;;2.67;1.60;;;;;;;;;;4952876;29;20389;-83
2022/06/14 03:22:50;;;;;;;2.13;1.20;;;;;;;;;;4953043;29;20027;-83
2022/06/14 03:25:24;;;;;;;4.50;1.48;;;;;;;;;;4954370;28;20483;-83
2022/06/14 03:27:56;;;;;;;2.17;1.30;;;;;;;;;;4936868;29;20042;-84
2022/06/14 03:30:26;;;;;;;3.05;1.30;;;;;;;;;;4937521;29;20068;-84
2022/06/14 03:33:00;;;;;;;1.58;1.10;;;;;;;;;;4953490;29;20019;-83
2022/06/14 03:35:38;;;;;;;1.55;1.10;;;;;;;;;;4954526;28;20122;-83
2022/06/14 03:38:13;;;;;;;2.05;1.25;;;;;;;;;;4953160;29;20027;-83
2022/06/14 03:40:41;;;;;;;4.68;1.63;;;;;;;;;;4937087;29;20038;-83
2022/06/14 03:43:07;;;;;;;2.38;1.27;;;;;;;;;;4953192;29;20031;-83
2022/06/14 03:45:49;;;;;;;2.97;1.30;;;;;;;;;;4952949;29;20047;-83
2022/06/14 03:48:15;;;;;;;2.22;1.23;;;;;;;;;;4936811;29;20403;-82
2022/06/14 03:51:04;;;;;;;2.92;1.23;;;;;;;;;;4952758;29;20114;-83
2022/06/14 03:53:47;;;;;;;4.85;1.40;;;;;;;;;;4954026;28;20027;-83
2022/06/14 03:56:16;;;;;;;3.55;1.30;;;;;;;;;;4954184;28;20032;-83
2022/06/14 03:59:00;;;;;;;5.03;1.33;;;;;;;;;;4936565;29;20488;-84
2022/06/14 04:01:28;;;;;;;;;;;;;;;;;;4954390;28;20053;-84
2022/06/14 04:04:21;;;;;;;4.03;1.20;;;;;;;;;;4952699;29;19911;-84
2022/06/14 04:07:31;;;;;;;3.20;1.30;;;;;;;;;;4952652;29;20027;-84
2022/06/14 04:09:59;;;;;;;2.58;1.35;;;;;;;;;;4953797;29;20038;-83
2022/06/14 04:12:38;;;;;;;2.90;1.42;;;;;;;;;;4936685;29;20503;-83
2022/06/14 04:15:34;;;;;;;3.33;1.77;;;;;;;;;;4952703;29;20476;-83
2022/06/14 04:21:20;;;;;;;3.97;1.63;;;;;;;;;;4953032;29;20037;-82
2022/06/14 04:23:52;;;;;;;4.63;2.15;;;;;;;;;;4954037;29;20047;-83
2022/06/14 04:26:39;;;;;;;5.43;2.20;;;;;;;;;;4953762;28;20025;-79
2022/06/14 04:29:32;;;;;;;5.22;1.80;;;;;;;;;;4952631;29;20475;-79
2022/06/14 04:32:26;;;;;;;5.63;2.00;;;;;;;;;;4954389;28;20042;-79
2022/06/14 04:35:13;;;;;;;6.95;2.20;;;;;;;;;;4940547;29;20039;-80
2022/06/14 04:37:43;;;;;;;6.22;2.13;;;;;;;;;;4952550;29;20046;-80
2022/06/14 04:40:20;;;;;;;4.03;2.00;;;;;;;;;;4952734;29;20054;-79
2022/06/14 04:42:59;;;;;;;6.30;2.00;;;;;;;;;;4952617;28;20471;-80
2022/06/14 04:45:40;;;;;;;7.05;2.33;;;;;;;;;;4955984;29;20064;-79
2022/06/14 04:48:19;;;;;;;7.80;2.20;;;;;;;;;;4940351;29;20098;-79
2022/06/14 04:50:55;;;;;;;5.20;2.25;;;;;;;;;;4955737;29;20062;-78
2022/06/14 04:53:28;;;;;;;7.90;2.65;;;;;;;;;;4955715;29;20023;-81
2022/06/14 04:55:56;;;;;;;;;;;;;;;;;;4959176;28;20106;-81
2022/06/14 04:58:37;;;;;;;7.03;2.50;;;;;;;;;;4940591;29;19917;-83
2022/06/14 05:01:07;;;;;;;4.53;2.38;;;;;;;;;;4958055;28;20030;-81
2022/06/14 05:03:54;;;;;;;17.85;4.30;;;;;;;;;;4971803;28;20496;-82
2022/06/14 05:06:42;;;;;;;29.60;7.35;;;;;;;;;;4957995;28;20063;-81
2022/06/14 05:09:20;;;;;;;25.73;6.53;;;;;;;;;;4956412;29;20472;-81
2022/06/14 05:11:57;;;;;;;29.05;7.60;;;;;;;;;;4956339;29;20031;-81
2022/06/14 05:14:27;;;;;;;22.85;6.43;;;;;;;;;;4958513;28;20402;-81
2022/06/14 05:16:57;;;;;;;28.30;7.35;;;;;;;;;;4955790;29;20027;-82
2022/06/14 05:19:48;;;;;;;22.63;5.65;;;;;;;;;;4956243;29;20047;-81
2022/06/14 05:22:24;;;;;;;21.33;6.43;;;;;;;;;;4955937;29;20031;-81
2022/06/14 05:24:50;;;;;;;19.38;5.00;;;;;;;;;;4939672;29;20030;-81
2022/06/14 05:27:24;;;;;;;14.65;4.60;;;;;;;;;;4955994;29;20118;-81
2022/06/14 05:30:08;;;;;;;16.05;5.22;;;;;;;;;;4957331;28;20027;-82
2022/06/14 05:32:35;;;;;;;19.75;5.25;;;;;;;;;;4955764;29;20094;-82
2022/06/14 05:35:33;;;;;;;17.98;5.07;;;;;;;;;;4955635;29;20070;-82
2022/06/14 05:38:14;;;;;;;16.48;4.18;;;;;;;;;;4957623;28;20031;-82
2022/06/14 05:40:53;;;;;;;14.10;3.83;;;;;;;;;;4955961;29;20103;-81
2022/06/14 05:43:37;;;;;;;10.25;3.92;;;;;;;;;;4941267;29;20396;-81
2022/06/14 05:46:08;;;;;;;11.38;3.50;;;;;;;;;;4957188;29;20031;-81
2022/06/14 05:48:51;;;;;;;8.88;3.20;;;;;;;;;;4957631;29;20041;-80
2022/06/14 05:51:19;;;;;;;12.40;3.45;;;;;;;;;;4939995;29;20035;-80
2022/06/14 05:54:08;;;;;;;9.38;2.75;;;;;;;;;;4940485;29;20026;-81
2022/06/14 05:56:42;;;;;;;9.18;3.20;;;;;;;;;;4938396;28;20039;-81
2022/06/14 05:59:31;;;;;;;8.93;3.33;;;;;;;;;;4955263;29;20118;-81
2022/06/14 06:02:20;;;;;;;6.90;2.45;;;;;;;;;;4956825;29;20027;-79
2022/06/14 06:04:53;;;;;;;5.65;2.67;;;;;;;;;;4940090;29;20027;-81
2022/06/14 06:07:25;;;;;;;6.32;2.70;;;;;;;;;;4956133;29;20503;-82
2022/06/14 06:09:56;;;;;;;6.63;2.33;;;;;;;;;;4940088;29;20129;-82
2022/06/14 06:12:22;;;;;;;7.05;2.78;;;;;;;;;;4957259;29;20038;-82
2022/06/14 06:14:53;;;;;;;7.40;2.28;;;;;;;;;;4941266;29;20027;-81
2022/06/14 06:17:29;;;;;;;10.60;2.53;;;;;;;;;;4940147;29;20089;-81
2022/06/14 06:20:20;;;;;;;7.72;2.45;;;;;;;;;;4958301;29;20047;-81
2022/06/14 06:22:58;;;;;;;6.07;2.83;;;;;;;;;;4957837;29;20031;-81
2022/06/14 06:25:27;;;;;;;4.40;2.20;;;;;;;;;;4957420;29;20019;-81
2022/06/14 06:28:28;;;;;;;5.22;1.67;;;;;;;;;;4956784;29;20031;-81
2022/06/14 06:31:17;;;;;;;6.35;1.95;;;;;;;;;;4950250;29;20039;-81
2022/06/14 06:33:50;;;;;;;8.48;2.25;;;;;;;;;;4956385;28;20031;-80
2022/06/14 06:36:31;;;;;;;6.43;2.35;;;;;;;;;;4954836;29;20027;-82
2022/06/14 06:39:05;;;;;;;5.53;2.03;;;;;;;;;;4955732;28;20027;-82
2022/06/14 06:41:51;;;;;;;6.40;1.90;;;;;;;;;;4955391;29;20066;-81
2022/06/14 06:44:25;;;;;;;6.95;2.05;;;;;;;;;;4954403;29;20125;-83
2022/06/14 06:47:14;;;;;;;5.13;1.90;;;;;;;;;;4959286;28;20463;-82
2022/06/14 06:49:58;;;;;;;3.95;1.83;;;;;;;;;;4974377;28;20038;-82
2022/06/14 06:52:34;;;;;;;5.95;1.60;;;;;;;;;;4974623;28;20031;-81
2022/06/14 06:55:03;;;;;;;9.48;1.52;;;;;;;;;;4974433;28;20030;-81
2022/06/14 06:57:30;;;;;;;6.07;1.63;;;;;;;;;;4957716;28;20069;-81
2022/06/14 06:59:57;;;;;;;7.32;1.48;;;;;;;;;;4976816;28;20035;-83
2022/06/14 07:02:48;;;;;;;8.25;1.90;;;;;;;;;;4974884;28;20030;-83
2022/06/14 07:05:17;;;;;;;4.32;1.48;;;;;;;;;;4976048;28;20026;-82
2022/06/14 07:08:02;;;;;;;3.50;1.40;;;;;;;;;;4975613;28;20023;-84
2022/06/14 07:10:38;;;;;;;11.13;3.40;;;;;;;;;;4976129;28;20046;-83
2022/06/14 07:13:10;;;;;;;9.32;2.83;;;;;;;;;;4977750;28;20019;-83
2022/06/14 07:16:13;;;;;;;9.15;2.60;;;;;;;;;;4975637;28;20314;-84
2022/06/14 07:18:50;;;;;;;7.50;2.10;;;;;;;;;;4972826;28;20145;-82
2022/06/14 07:21:23;;;;;;;6.20;1.88;;;;;;;;;;4977791;28;20018;-80
2022/06/14 07:23:56;;;;;;;8.95;2.22;;;;;;;;;;4980523;28;20361;-80
2022/06/14 07:26:26;;;;;;;6.57;2.15;;;;;;;;;;4983047;28;20062;-80
2022/06/14 07:29:05;;;;;;;4.65;1.98;;;;;;;;;;4978341;28;20026;-81
2022/06/14 07:31:56;;;;;;;4.35;1.65;;;;;;;;;;4978144;28;20146;-80
2022/06/14 07:34:21;;;;;;;11.73;2.15;;;;;;;;;;4949118;28;20050;-79
2022/06/14 07:36:56;;;;;;;5.00;1.60;;;;;;;;;;4980897;28;20047;-80
2022/06/14 07:39:37;;;;;;;4.93;1.55;;;;;;;;;;4983032;28;20022;-81
2022/06/14 07:42:17;;;;;;;2.85;1.23;;;;;;;;;;4982401;28;20473;-79
2022/06/14 07:44:56;;;;;;;4.97;1.60;;;;;;;;;;4978854;28;20026;-80
2022/06/14 07:47:46;;;;;;;3.60;1.30;;;;;;;;;;4977115;28;20027;-80
2022/06/14 07:50:36;;;;;;;5.78;1.23;;;;;;;;;;4975425;28;20114;-91
2022/06/14 07:53:12;;;;;;;6.60;1.92;;;;;;;;;;4958393;28;20090;-90
2022/06/14 07:56:03;;;;;;;5.10;1.17;;;;;;;;;;4975588;28;20045;-89
2022/06/14 07:58:39;;;;;;;3.33;1.25;;;;;;;;;;4976797;28;20035;-89
2022/06/14 08:01:15;;;;;;;5.63;1.20;;;;;;;;;;4963681;28;20042;-92
2022/06/14 08:03:48;;;;;;;8.45;1.20;;;;;;;;;;4963272;28;20034;-94
2022/06/14 08:06:24;;;;;;;1.85;1.10;;;;;;;;;;4976069;28;20034;-95
2022/06/14 08:09:06;;;;;;;3.80;1.15;;;;;;;;;;4979900;28;20101;-93
2022/06/14 08:11:44;;;;;;;3.33;1.48;;;;;;;;;;4978661;28;20033;-92
2022/06/14 08:14:15;;;;;;;1.38;1.20;;;;;;;;;;4961871;28;20030;-92
2022/06/14 08:16:41;;;;;;;4.25;1.10;;;;;;;;;;4960932;28;20064;-92
2022/06/14 08:19:11;;;;;;;3.53;1.00;;;;;;;;;;4962640;28;20065;-94
2022/06/14 08:21:46;;;;;;;2.35;1.00;;;;;;;;;;4981487;28;20085;-93
2022/06/14 08:24:18;;;;;;;2.03;1.00;;;;;;;;;;4966387;28;20031;-95
2022/06/14 08:26:55;;;;;;;3.28;1.10;;;;;;;;;;4969673;28;20030;-95
2022/06/14 08:29:56;;;;;;;2.33;1.23;;;;;;;;;;4975284;28;20030;-95
2022/06/14 08:32:57;;;;;;;2.80;1.02;;;;;;;;;;4931215;29;20038;-94
2022/06/14 08:35:26;;;;;;;2.17;1.00;;;;;;;;;;4954856;28;20062;-96
2022/06/14 08:38:10;;;;;;;2.85;1.10;;;;;;;;;;4997842;28;20018;-95
2022/06/14 08:40:53;;;;;;;1.63;1.00;;;;;;;;;;4994349;28;20031;-95
2022/06/14 08:43:23;;;;;;;2.08;1.40;;;;;;;;;;4998652;28;20034;-91
2022/06/14 08:46:17;;;;;;;3.20;1.23;;;;;;;;;;4996116;28;20096;-94
2022/06/14 08:48:49;;;;;;;1.53;1.10;;;;;;;;;;4964963;28;20525;-93
2022/06/14 08:51:36;;;;;;;2.10;1.05;;;;;;;;;;4964718;28;20031;-93
2022/06/14 08:54:27;;;;;;;2.13;1.17;;;;;;;;;;4984409;28;20022;-93
2022/06/14 08:57:05;;;;;;;1.73;1.00;;;;;;;;;;4965202;28;20037;-93
2022/06/14 08:59:54;;;;;;;1.90;1.00;;;;;;;;;;4985946;28;20391;-94
2022/06/14 09:02:32;;;;;;;1.25;0.90;;;;;;;;;;4967453;28;20113;-94
2022/06/14 09:05:18;;;;;;;1.27;0.88;;;;;;;;;;4984371;28;20033;-93
2022/06/14 09:08:02;;;;;;;2.67;1.05;;;;;;;;;;4981022;28;20031;-94
2022/06/14 09:10:30;;;;;;;1.35;0.80;;;;;;;;;;4977029;28;20065;-92
2022/06/14 09:13:26;;;;;;;2.45;1.10;;;;;;;;;;4978820;28;20027;-95
2022/06/14 09:16:35;;;;;;;3.80;1.10;;;;;;;;;;4994182;28;20037;-95
2022/06/14 09:19:03;;;;;;;0.98;0.80;;;;;;;;;;4960829;28;20078;-95
2022/06/14 09:21:50;;;;;;;1.30;0.80;;;;;;;;;;4986689;28;20030;-94
2022/06/14 09:24:41;;;;;;;2.40;1.10;;;;;;;;;;4984235;28;20041;-91
2022/06/14 09:27:32;;;;;;;2.70;1.08;;;;;;;;;;4980954;28;20054;-95
2022/06/14 09:30:00;;;;;;;2.13;0.90;;;;;;;;;;4979927;28;20456;-95
2022/06/14 09:33:09;;;;;;;1.23;0.98;;;;;;;;;;4982573;28;20534;-93
2022/06/14 09:35:59;;;;;;;2.08;1.00;;;;;;;;;;4985353;28;20041;-94
2022/06/14 09:38:24;;;;;;;3.50;1.33;;;;;;;;;;4981630;28;20452;-93
2022/06/14 09:41:20;;;;;;;1.10;0.80;;;;;;;;;;4977917;28;20122;-94
2022/06/14 09:44:19;;;;;;;1.55;0.82;;;;;;;;;;4979298;28;20061;-93
2022/06/14 09:46:57;;;;;;;2.08;1.10;;;;;;;;;;4978099;28;20037;-92
2022/06/14 09:49:43;;;;;;;1.17;0.70;;;;;;;;;;4979307;28;20034;-93
2022/06/14 09:52:30;;;;;;;1.95;0.73;;;;;;;;;;4978984;28;20030;-93
2022/06/14 09:55:32;;;;;;;1.85;1.02;;;;;;;;;;4978880;28;20027;-93
2022/06/14 09:58:21;;;;;;;0.70;0.70;;;;;;;;;;4979741;28;20083;-90
2022/06/14 10:00:46;;;;;;;1.67;1.05;;;;;;;;;;4981052;28;20034;-90
2022/06/14 10:03:38;;;;;;;1.33;1.10;;;;;;;;;;4988666;28;20031;-91
2022/06/14 10:06:06;;;;;;;0.73;0.63;;;;;;;;;;4973238;28;20010;-90
2022/06/14 10:08:48;;;;;;;1.17;0.85;;;;;;;;;;4991206;28;20114;-90
2022/06/14 10:11:34;;;;;;;2.13;1.10;;;;;;;;;;4963973;28;20046;-91
2022/06/14 10:14:27;;;;;;;1.27;0.70;;;;;;;;;;4961914;28;20065;-91
2022/06/14 10:17:35;;;;;;;1.38;0.80;;;;;;;;;;4977314;28;20074;-91
2022/06/14 10:20:35;;;;;;;1.77;0.80;;;;;;;;;;4954853;29;20047;-91
2022/06/14 10:23:11;;;;;;;1.75;0.88;;;;;;;;;;4941405;29;20026;-90
2022/06/14 10:29:04;;;;;;;0.88;0.75;;;;;;;;;;4960143;29;20427;-92
2022/06/14 10:31:41;;;;;;;2.45;1.00;;;;;;;;;;4944979;29;20085;-92
2022/06/14 10:34:20;;;;;;;0.90;0.70;;;;;;;;;;4961096;29;20023;-92
2022/06/14 10:36:49;;;;;;;1.67;0.70;;;;;;;;;;4943607;29;20089;-91
2022/06/14 10:39:14;;;;;;;5.88;1.05;;;;;;;;;;4957395;29;20552;-92
2022/06/14 10:41:42;;;;;;;1.95;1.00;;;;;;;;;;4958212;28;20065;-91
2022/06/14 10:44:29;;;;;;;3.28;0.82;;;;;;;;;;4958602;29;20129;-92
2022/06/14 10:47:10;;;;;;;3.33;0.90;;;;;;;;;;4959674;29;20030;-92
2022/06/14 10:49:42;;;;;;;1.17;0.90;;;;;;;;;;4943351;29;20431;-91
2022/06/14 10:52:37;;;;;;;2.88;1.00;;;;;;;;;;4943018;29;20170;-93
2022/06/14 10:55:08;;;;;;;0.85;0.70;;;;;;;;;;4942006;29;20050;-92
2022/06/14 10:58:08;;;;;;;1.65;0.98;;;;;;;;;;4957829;29;20023;-91
2022/06/14 11:00:40;;;;;;;1.40;0.82;;;;;;;;;;4956005;29;20059;-94
2022/06/14 11:03:33;;;;;;;1.95;0.90;;;;;;;;;;4946338;29;20023;-93
2022/06/14 11:06:15;;;;;;;1.50;0.90;;;;;;;;;;4959677;29;20023;-93
2022/06/14 11:08:53;;;;;;;3.55;0.98;;;;;;;;;;4946065;29;20023;-94
2022/06/14 11:11:30;;;;;;;1.60;0.90;;;;;;;;;;4945834;29;20119;-92
2022/06/14 11:14:06;;;;;;;2.50;1.10;;;;;;;;;;4948691;29;20023;-93
2022/06/14 11:17:02;;;;;;;2.42;1.02;;;;;;;;;;4948593;29;20074;-94
2022/06/14 11:19:55;;;;;;;3.72;1.20;;;;;;;;;;4983128;28;20051;-92
2022/06/14 11:22:36;;;;;;;3.88;1.15;;;;;;;;;;4993850;28;20023;-93
2022/06/14 11:25:18;;;;;;;2.22;1.05;;;;;;;;;;4979423;28;20353;-92
2022/06/14 11:28:02;;;;;;;1.10;0.85;;;;;;;;;;4962685;28;20069;-92
2022/06/14 11:30:46;;;;;;;3.22;1.17;;;;;;;;;;4960146;28;20042;-89
2022/06/14 11:33:34;;;;;;;1.77;0.90;;;;;;;;;;4973562;28;20559;-86
2022/06/14 11:36:18;;;;;;;3.58;1.40;;;;;;;;;;4973262;28;20062;-88
2022/06/14 11:38:53;;;;;;;18.38;1.13;;;;;;;;;;4973822;28;20117;-85
2022/06/14 11:41:21;;;;;;;1.17;0.85;;;;;;;;;;4974195;28;20034;-85
2022/06/14 11:44:05;;;;;;;3.53;0.80;;;;;;;;;;4956961;28;20116;-84
2022/06/14 11:46:49;;;;;;;;;;;;;;;;;;4974401;28;20026;-84
2022/06/14 11:49:24;;;;;;;3.75;1.35;;;;;;;;;;4974252;28;19910;-85
2022/06/14 11:52:18;;;;;;;4.13;1.10;;;;;;;;;;4972612;28;20031;-84
2022/06/14 11:55:46;;;;;;;1.63;0.80;;;;;;;;;;4961914;28;20089;-85
2022/06/14 11:58:33;;;;;;;6.95;1.13;;;;;;;;;;4919079;29;20040;-87
2022/06/14 12:01:07;;;;;;;2.95;1.63;;;;;;;;;;4902586;29;20040;-87
2022/06/14 12:03:53;;;;;;;2.67;0.77;;;;;;;;;;4902357;29;20505;-88
2022/06/14 12:06:44;;;;;;;2.10;1.00;;;;;;;;;;4918947;29;20086;-88
2022/06/14 12:09:27;;;;;;;8.95;1.17;;;;;;;;;;4902439;29;20048;-87
2022/06/14 12:12:30;;;;;;;1.17;0.82;;;;;;;;;;4918479;29;20040;-89
2022/06/14 12:15:07;;;;;;;4.38;1.00;;;;;;;;;;4918623;29;20064;-86
2022/06/14 12:17:47;;;;;;;1.30;0.90;;;;;;;;;;4905203;29;20032;-86
2022/06/14 12:20:23;;;;;;;3.80;1.45;;;;;;;;;;4903017;29;20095;-87
2022/06/14 12:23:00;;;;;;;4.45;1.23;;;;;;;;;;4903001;29;20036;-88
2022/06/14 12:28:42;;;;;;;1.05;0.93;;;;;;;;;;4919334;28;20046;-87
2022/06/14 12:31:22;;;;;;;2.50;1.10;;;;;;;;;;4978327;28;20084;-86
2022/06/14 12:33:57;;;;;;;1.00;0.90;;;;;;;;;;4961302;28;20027;-87
2022/06/14 12:37:13;;;;;;;0.88;0.80;;;;;;;;;;4977351;28;20095;-86
2022/06/14 12:39:44;;;;;;;2.30;0.80;;;;;;;;;;4923961;29;20400;-88
2022/06/14 12:42:19;;;;;;;1.60;0.85;;;;;;;;;;4972070;28;20057;-88
2022/06/14 12:44:55;;;;;;;0.85;0.82;;;;;;;;;;4975923;28;20026;-87
2022/06/14 12:47:35;;;;;;;1.38;0.90;;;;;;;;;;4976619;28;20137;-87
2022/06/14 12:50:15;;;;;;;1.85;0.80;;;;;;;;;;4976901;28;20448;-87
2022/06/14 12:52:46;;;;;;;3.85;0.90;;;;;;;;;;4976313;28;20448;-86
2022/06/14 12:55:18;;;;;;;0.85;0.80;;;;;;;;;;4959750;28;20033;-87
2022/06/14 12:58:30;;;;;;;1.27;1.08;;;;;;;;;;4976726;28;20023;-88
2022/06/14 13:01:21;;;;;;;1.45;0.90;;;;;;;;;;4955009;28;20071;-87
2022/06/14 13:03:56;;;;;;;1.52;1.02;;;;;;;;;;4959852;28;20042;-86
2022/06/14 13:06:31;;;;;;;2.88;0.80;;;;;;;;;;4975394;28;20019;-85
2022/06/14 13:09:05;;;;;;;2.10;0.82;;;;;;;;;;4976907;28;20030;-85
2022/06/14 13:11:41;;;;;;;7.95;1.17;;;;;;;;;;4976751;28;20491;-90
2022/06/14 13:14:14;;;;;;;2.60;0.70;;;;;;;;;;4959723;28;20022;-90
2022/06/14 13:16:51;;;;;;;1.00;0.70;;;;;;;;;;4976654;28;20026;-88
2022/06/14 13:19:35;;;;;;;5.32;1.02;;;;;;;;;;4978581;28;20126;-89
2022/06/14 13:22:03;;;;;;;7.40;1.00;;;;;;;;;;4975644;28;20034;-89
2022/06/14 13:24:55;;;;;;;2.60;0.85;;;;;;;;;;4987345;28;20035;-88
2022/06/14 13:27:39;;;;;;;3.15;1.00;;;;;;;;;;4968791;28;20029;-91
2022/06/14 13:30:34;;;;;;;2.22;0.90;;;;;;;;;;4977764;28;20526;-91
2022/06/14 13:33:30;;;;;;;2.63;1.17;;;;;;;;;;4959583;28;20141;-89
2022/06/14 13:36:05;;;;;;;3.33;1.00;;;;;;;;;;4974630;28;20035;-89
2022/06/14 13:38:42;;;;;;;4.43;1.10;;;;;;;;;;4976363;28;20030;-89
2022/06/14 13:41:41;;;;;;;3.70;1.58;;;;;;;;;;4975349;28;20027;-89
2022/06/14 13:44:09;;;;;;;1.92;1.00;;;;;;;;;;4974798;28;20399;-87
2022/06/14 13:46:58;;;;;;;3.53;1.10;;;;;;;;;;4975084;28;20022;-89
2022/06/14 13:49:41;;;;;;;3.95;0.98;;;;;;;;;;4974740;28;20345;-90
2022/06/14 13:52:17;;;;;;;2.70;1.08;;;;;;;;;;4994198;28;20023;-88
2022/06/14 13:55:07;;;;;;;1.13;0.93;;;;;;;;;;4978309;28;20023;-90
2022/06/14 13:58:03;;;;;;;0.82;0.77;;;;;;;;;;4977947;28;20027;-89
2022/06/14 14:00:45;;;;;;;1.20;0.90;;;;;;;;;;4957715;28;20598;-88
2022/06/14 14:03:30;;;;;;;2.08;0.95;;;;;;;;;;4974079;28;20128;-89
2022/06/14 14:06:16;;;;;;;1.15;0.90;;;;;;;;;;4973844;28;20022;-88
2022/06/14 14:08:53;;;;;;;1.55;1.02;;;;;;;;;;4974271;28;20023;-87
2022/06/14 14:11:47;;;;;;;1.85;0.80;;;;;;;;;;4974929;28;20026;-89
2022/06/14 14:14:55;;;;;;;5.43;1.00;;;;;;;;;;4973635;28;20487;-89
2022/06/14 14:17:33;;;;;;;3.22;0.95;;;;;;;;;;4956464;28;20039;-84
2022/06/14 14:20:19;;;;;;;2.58;0.90;;;;;;;;;;4956755;28;20340;-84
2022/06/14 14:22:59;;;;;;;2.72;1.17;;;;;;;;;;4974363;28;20379;-85
2022/06/14 14:25:32;;;;;;;1.67;1.00;;;;;;;;;;4957261;28;20485;-88
2022/06/14 14:28:04;;;;;;;1.43;0.90;;;;;;;;;;4973044;28;20022;-85
2022/06/14 14:30:50;;;;;;;5.55;1.90;;;;;;;;;;4973123;28;20062;-85
2022/06/14 14:33:24;;;;;;;2.35;1.27;;;;;;;;;;4956701;28;20027;-88
2022/06/14 14:35:54;;;;;;;2.00;0.82;;;;;;;;;;4973405;28;20049;-88
2022/06/14 14:38:46;;;;;;;1.73;1.00;;;;;;;;;;4958926;28;20105;-90
2022/06/14 14:41:37;;;;;;;4.50;1.10;;;;;;;;;;4973488;28;20056;-87
2022/06/14 14:44:31;;;;;;;3.65;0.82;;;;;;;;;;4975354;28;20109;-87
2022/06/14 14:47:00;;;;;;;1.95;0.90;;;;;;;;;;4953834;28;20041;-88
2022/06/14 14:49:38;;;;;;;3.35;0.90;;;;;;;;;;4974975;28;20031;-88
2022/06/14 14:52:13;;;;;;;0.80;0.80;;;;;;;;;;4974889;28;20065;-85
2022/06/14 14:55:00;;;;;;;1.75;1.08;;;;;;;;;;4959669;28;20037;-88
2022/06/14 14:57:37;;;;;;;1.23;0.75;;;;;;;;;;4977148;28;20519;-89
2022/06/14 15:00:19;;;;;;;2.53;0.80;;;;;;;;;;4975231;28;20031;-89
2022/06/14 15:05:55;;;;;;;3.63;1.30;;;;;;;;;;4974039;28;20034;-88
2022/06/14 15:08:41;;;;;;;3.05;1.00;;;;;;;;;;4974687;28;20023;-88
2022/06/14 15:11:06;;;;;;;2.83;1.00;;;;;;;;;;4976674;28;20050;-85
2022/06/14 15:13:45;;;;;;;1.23;0.90;;;;;;;;;;4974368;28;20026;-88
2022/06/14 15:16:34;;;;;;;2.53;0.90;;;;;;;;;;4960823;28;20038;-88
2022/06/14 15:21:55;;;;;;;1.77;1.00;;;;;;;;;;4976383;28;20034;-91
2022/06/14 15:24:29;;;;;;;2.15;1.02;;;;;;;;;;4958747;28;20467;-90
2022/06/14 15:27:34;;;;;;;3.75;1.17;;;;;;;;;;4958674;28;20030;-89
2022/06/14 15:30:00;;;;;;;1.73;1.00;;;;;;;;;;4958886;28;20114;-86
2022/06/14 15:32:30;;;;;;;1.10;1.00;;;;;;;;;;4960797;28;20373;-88
2022/06/14 15:34:59;;;;;;;1.90;0.90;;;;;;;;;;4976563;28;20070;-87
2022/06/14 15:37:38;;;;;;;1.50;1.00;;;;;;;;;;4959447;28;20035;-85
2022/06/14 15:40:04;;;;;;;2.42;1.10;;;;;;;;;;4961249;28;20019;-87
2022/06/14 15:42:39;;;;;;;0.90;0.90;;;;;;;;;;4977427;28;20030;-86
2022/06/14 15:45:25;;;;;;;1.13;0.85;;;;;;;;;;4972451;28;20019;-88
2022/06/14 15:48:08;;;;;;;1.45;1.00;;;;;;;;;;4975236;28;20597;-86
2022/06/14 15:50:38;;;;;;;2.78;1.02;;;;;;;;;;4973937;28;20579;-82
2022/06/14 15:53:14;;;;;;;1.45;0.98;;;;;;;;;;4956503;28;20105;-86
2022/06/14 15:55:40;;;;;;;2.30;1.02;;;;;;;;;;4973241;28;20527;-85
2022/06/14 15:58:21;;;;;;;6.55;1.10;;;;;;;;;;4941278;28;20038;-89
2022/06/14 16:01:08;;;;;;;1.42;1.00;;;;;;;;;;4974717;28;20147;-85
2022/06/14 16:03:56;;;;;;;2.95;1.20;;;;;;;;;;4973089;28;20026;-79
2022/06/14 16:06:28;;;;;;;2.65;1.30;;;;;;;;;;4967805;28;20043;-83
2022/06/14 16:08:57;;;;;;;6.47;1.52;;;;;;;;;;4971134;28;20044;-83
2022/06/14 16:11:23;;;;;;;4.53;1.73;;;;;;;;;;4971660;28;20029;-83